sensor_id;sensor_type;location;lat;lon;timestamp;pressure;altitude;pressure_sealevel;temperature;humidity
51926;BME280;37952;51.938;15.480;2023-11-18T00:01:56;100095.30;;;3.24;85.10
51926;BME280;37952;51.938;15.480;2023-11-18T00:04:58;100093.16;;;3.26;85.19
51926;BME280;37952;51.938;15.480;2023-11-18T00:07:59;100101.83;;;3.28;85.09
51926;BME280;37952;51.938;15.480;2023-11-18T00:11:01;100108.43;;;3.22;85.15
51926;BME280;37952;51.938;15.480;2023-11-18T00:14:04;100114.14;;;3.23;85.14
51926;BME280;37952;51.938;15.480;2023-11-18T00:17:06;100114.86;;;3.23;85.17
51926;BME280;37952;51.938;15.480;2023-11-18T00:20:13;100119.46;;;3.19;85.17
51926;BME280;37952;51.938;15.480;2023-11-18T00:23:17;100119.34;;;3.17;85.24
51926;BME280;37952;51.938;15.480;2023-11-18T00:26:22;100111.55;;;3.16;85.06
51926;BME280;37952;51.938;15.480;2023-11-18T00:29:24;100113.67;;;3.22;85.06
51926;BME280;37952;51.938;15.480;2023-11-18T00:32:26;100124.38;;;3.18;85.17
51926;BME280;37952;51.938;15.480;2023-11-18T00:35:28;100136.52;;;3.20;85.17
51926;BME280;37952;51.938;15.480;2023-11-18T00:38:33;100135.63;;;3.22;85.21
51926;BME280;37952;51.938;15.480;2023-11-18T00:41:34;100137.22;;;3.27;85.13
51926;BME280;37952;51.938;15.480;2023-11-18T00:44:36;100150.41;;;3.30;85.21
51926;BME280;37952;51.938;15.480;2023-11-18T00:47:48;100157.39;;;3.29;85.25
51926;BME280;37952;51.938;15.480;2023-11-18T00:50:52;100149.91;;;3.28;85.19
51926;BME280;37952;51.938;15.480;2023-11-18T00:53:54;100155.65;;;3.29;85.31
51926;BME280;37952;51.938;15.480;2023-11-18T00:56:56;100167.55;;;3.26;85.36
51926;BME280;37952;51.938;15.480;2023-11-18T00:59:57;100166.12;;;3.28;85.36
51926;BME280;37952;51.938;15.480;2023-11-18T01:02:59;100170.65;;;3.28;85.30
51926;BME280;37952;51.938;15.480;2023-11-18T01:06:01;100173.02;;;3.31;85.22
51926;BME280;37952;51.938;15.480;2023-11-18T01:09:03;100170.29;;;3.36;85.03
51926;BME280;37952;51.938;15.480;2023-11-18T01:12:05;100185.50;;;3.41;84.97
51926;BME280;37952;51.938;15.480;2023-11-18T01:15:10;100202.41;;;3.33;85.12
51926;BME280;37952;51.938;15.480;2023-11-18T01:18:19;100205.45;;;3.30;85.01
51926;BME280;37952;51.938;15.480;2023-11-18T01:21:21;100205.80;;;3.30;84.98
51926;BME280;37952;51.938;15.480;2023-11-18T01:24:22;100205.70;;;3.34;84.97
51926;BME280;37952;51.938;15.480;2023-11-18T01:27:24;100207.55;;;3.37;84.78
51926;BME280;37952;51.938;15.480;2023-11-18T01:30:25;100207.81;;;3.41;84.70
51926;BME280;37952;51.938;15.480;2023-11-18T01:33:28;100214.21;;;3.43;84.68
51926;BME280;37952;51.938;15.480;2023-11-18T01:36:30;100220.25;;;3.45;84.60
51926;BME280;37952;51.938;15.480;2023-11-18T01:39:31;100223.06;;;3.44;84.44
51926;BME280;37952;51.938;15.480;2023-11-18T01:42:34;100224.77;;;3.38;84.39
51926;BME280;37952;51.938;15.480;2023-11-18T01:45:35;100224.63;;;3.37;84.29
51926;BME280;37952;51.938;15.480;2023-11-18T01:48:38;100226.71;;;3.37;84.36
51926;BME280;37952;51.938;15.480;2023-11-18T01:51:46;100226.66;;;3.32;84.29
51926;BME280;37952;51.938;15.480;2023-11-18T01:54:48;100230.21;;;3.28;84.27
51926;BME280;37952;51.938;15.480;2023-11-18T01:57:52;100236.09;;;3.31;84.18
51926;BME280;37952;51.938;15.480;2023-11-18T02:00:53;100243.45;;;3.37;84.34
51926;BME280;37952;51.938;15.480;2023-11-18T02:03:54;100244.95;;;3.39;84.30
51926;BME280;37952;51.938;15.480;2023-11-18T02:06:56;100245.75;;;3.43;84.18
51926;BME280;37952;51.938;15.480;2023-11-18T02:09:59;100247.70;;;3.49;84.14
51926;BME280;37952;51.938;15.480;2023-11-18T02:13:07;100250.91;;;3.53;84.11
51926;BME280;37952;51.938;15.480;2023-11-18T02:16:12;100253.95;;;3.58;83.95
51926;BME280;37952;51.938;15.480;2023-11-18T02:19:20;100262.33;;;3.57;83.83
51926;BME280;37952;51.938;15.480;2023-11-18T02:22:24;100259.80;;;3.53;83.91
51926;BME280;37952;51.938;15.480;2023-11-18T02:25:27;100267.83;;;3.53;83.79
51926;BME280;37952;51.938;15.480;2023-11-18T02:28:30;100270.37;;;3.49;83.82
51926;BME280;37952;51.938;15.480;2023-11-18T02:31:33;100273.46;;;3.42;83.88
51926;BME280;37952;51.938;15.480;2023-11-18T02:34:41;100275.42;;;3.41;83.90
51926;BME280;37952;51.938;15.480;2023-11-18T02:37:50;100278.52;;;3.34;84.18
51926;BME280;37952;51.938;15.480;2023-11-18T02:40:56;100283.55;;;3.36;84.13
51926;BME280;37952;51.938;15.480;2023-11-18T02:43:59;100287.27;;;3.33;84.35
51926;BME280;37952;51.938;15.480;2023-11-18T02:47:01;100283.70;;;3.37;84.29
51926;BME280;37952;51.938;15.480;2023-11-18T02:50:05;100288.15;;;3.40;84.23
51926;BME280;37952;51.938;15.480;2023-11-18T02:53:07;100289.23;;;3.39;84.36
51926;BME280;37952;51.938;15.480;2023-11-18T02:56:13;100295.34;;;3.38;84.42
51926;BME280;37952;51.938;15.480;2023-11-18T02:59:16;100302.38;;;3.35;84.57
51926;BME280;37952;51.938;15.480;2023-11-18T03:02:17;100303.38;;;3.30;84.69
51926;BME280;37952;51.938;15.480;2023-11-18T03:05:22;100307.48;;;3.25;84.86
51926;BME280;37952;51.938;15.480;2023-11-18T03:08:23;100312.05;;;3.32;84.79
51926;BME280;37952;51.938;15.480;2023-11-18T03:11:28;100321.08;;;3.33;84.90
51926;BME280;37952;51.938;15.480;2023-11-18T03:14:32;100315.56;;;3.30;85.04
51926;BME280;37952;51.938;15.480;2023-11-18T03:17:35;100317.02;;;3.26;85.18
51926;BME280;37952;51.938;15.480;2023-11-18T03:20:36;100316.80;;;3.29;85.16
51926;BME280;37952;51.938;15.480;2023-11-18T03:23:39;100320.15;;;3.36;85.04
51926;BME280;37952;51.938;15.480;2023-11-18T03:26:41;100332.37;;;3.35;85.13
51926;BME280;37952;51.938;15.480;2023-11-18T03:29:43;100335.50;;;3.26;85.34
51926;BME280;37952;51.938;15.480;2023-11-18T03:32:44;100337.11;;;3.24;85.54
51926;BME280;37952;51.938;15.480;2023-11-18T03:35:47;100337.89;;;3.29;85.54
51926;BME280;37952;51.938;15.480;2023-11-18T03:38:49;100334.07;;;3.28;85.67
51926;BME280;37952;51.938;15.480;2023-11-18T03:41:50;100337.28;;;3.32;85.60
51926;BME280;37952;51.938;15.480;2023-11-18T03:44:52;100343.95;;;3.30;85.77
51926;BME280;37952;51.938;15.480;2023-11-18T03:47:53;100343.84;;;3.27;85.85
51926;BME280;37952;51.938;15.480;2023-11-18T03:50:55;100345.36;;;3.29;85.90
51926;BME280;37952;51.938;15.480;2023-11-18T03:53:56;100341.13;;;3.33;85.95
51926;BME280;37952;51.938;15.480;2023-11-18T03:56:58;100351.08;;;3.31;86.00
51926;BME280;37952;51.938;15.480;2023-11-18T04:00:00;100358.48;;;3.36;85.86
51926;BME280;37952;51.938;15.480;2023-11-18T04:03:02;100354.25;;;3.38;85.98
51926;BME280;37952;51.938;15.480;2023-11-18T04:06:05;100358.20;;;3.41;85.98
51926;BME280;37952;51.938;15.480;2023-11-18T04:09:09;100360.64;;;3.41;85.89
51926;BME280;37952;51.938;15.480;2023-11-18T04:12:11;100359.42;;;3.40;86.05
51926;BME280;37952;51.938;15.480;2023-11-18T04:15:13;100361.55;;;3.47;85.84
51926;BME280;37952;51.938;15.480;2023-11-18T04:18:15;100360.86;;;3.55;85.69
51926;BME280;37952;51.938;15.480;2023-11-18T04:21:16;100362.67;;;3.60;85.56
51926;BME280;37952;51.938;15.480;2023-11-18T04:24:19;100361.98;;;3.60;85.54
51926;BME280;37952;51.938;15.480;2023-11-18T04:27:20;100361.58;;;3.62;85.44
51926;BME280;37952;51.938;15.480;2023-11-18T04:30:22;100359.61;;;3.64;85.47
51926;BME280;37952;51.938;15.480;2023-11-18T04:33:24;100358.48;;;3.68;85.39
51926;BME280;37952;51.938;15.480;2023-11-18T04:36:26;100354.42;;;3.71;85.23
51926;BME280;37952;51.938;15.480;2023-11-18T04:39:28;100360.50;;;3.72;85.20
51926;BME280;37952;51.938;15.480;2023-11-18T04:42:31;100360.78;;;3.74;85.14
51926;BME280;37952;51.938;15.480;2023-11-18T04:45:32;100364.50;;;3.79;85.07
51926;BME280;37952;51.938;15.480;2023-11-18T04:48:35;100363.06;;;3.82;84.95
51926;BME280;37952;51.938;15.480;2023-11-18T04:51:42;100356.08;;;3.82;84.87
51926;BME280;37952;51.938;15.480;2023-11-18T04:54:43;100359.72;;;3.84;84.84
51926;BME280;37952;51.938;15.480;2023-11-18T04:57:45;100359.06;;;3.81;84.72
51926;BME280;37952;51.938;15.480;2023-11-18T05:00:46;100364.20;;;3.77;84.70
51926;BME280;37952;51.938;15.480;2023-11-18T05:03:49;100367.81;;;3.79;84.67
51926;BME280;37952;51.938;15.480;2023-11-18T05:06:50;100374.34;;;3.84;84.65
51926;BME280;37952;51.938;15.480;2023-11-18T05:09:52;100377.47;;;3.85;84.56
51926;BME280;37952;51.938;15.480;2023-11-18T05:12:54;100374.23;;;3.81;84.56
51926;BME280;37952;51.938;15.480;2023-11-18T05:15:59;100379.30;;;3.80;84.44
51926;BME280;37952;51.938;15.480;2023-11-18T05:19:00;100377.19;;;3.82;84.52
51926;BME280;37952;51.938;15.480;2023-11-18T05:22:02;100384.04;;;3.79;84.43
51926;BME280;37952;51.938;15.480;2023-11-18T05:25:03;100380.39;;;3.79;84.35
51926;BME280;37952;51.938;15.480;2023-11-18T05:28:09;100385.30;;;3.77;84.39
51926;BME280;37952;51.938;15.480;2023-11-18T05:31:10;100386.35;;;3.77;84.34
51926;BME280;37952;51.938;15.480;2023-11-18T05:34:12;100386.77;;;3.82;84.41
51926;BME280;37952;51.938;15.480;2023-11-18T05:37:14;100388.39;;;3.80;84.38
51926;BME280;37952;51.938;15.480;2023-11-18T05:40:19;100393.13;;;3.78;84.34
51926;BME280;37952;51.938;15.480;2023-11-18T05:43:25;100392.30;;;3.76;84.31
51926;BME280;37952;51.938;15.480;2023-11-18T05:46:30;100395.64;;;3.75;84.27
51926;BME280;37952;51.938;15.480;2023-11-18T05:49:34;100396.23;;;3.72;84.46
51926;BME280;37952;51.938;15.480;2023-11-18T05:52:35;100395.97;;;3.68;84.38
51926;BME280;37952;51.938;15.480;2023-11-18T05:55:37;100394.02;;;3.69;84.50
51926;BME280;37952;51.938;15.480;2023-11-18T05:58:39;100391.88;;;3.72;84.46
51926;BME280;37952;51.938;15.480;2023-11-18T06:01:41;100390.33;;;3.71;84.54
51926;BME280;37952;51.938;15.480;2023-11-18T06:04:46;100399.09;;;3.69;84.48
51926;BME280;37952;51.938;15.480;2023-11-18T06:07:48;100402.59;;;3.67;84.55
51926;BME280;37952;51.938;15.480;2023-11-18T06:10:50;100405.63;;;3.64;84.62
51926;BME280;37952;51.938;15.480;2023-11-18T06:14:01;100403.41;;;3.63;84.56
51926;BME280;37952;51.938;15.480;2023-11-18T06:17:03;100407.09;;;3.69;84.47
51926;BME280;37952;51.938;15.480;2023-11-18T06:20:05;100409.13;;;3.72;84.49
51926;BME280;37952;51.938;15.480;2023-11-18T06:23:07;100408.11;;;3.71;84.41
51926;BME280;37952;51.938;15.480;2023-11-18T06:26:09;100409.17;;;3.70;84.55
51926;BME280;37952;51.938;15.480;2023-11-18T06:29:14;100406.48;;;3.74;84.59
51926;BME280;37952;51.938;15.480;2023-11-18T06:32:17;100409.73;;;3.76;84.56
51926;BME280;37952;51.938;15.480;2023-11-18T06:35:18;100410.76;;;3.77;84.57
51926;BME280;37952;51.938;15.480;2023-11-18T06:38:21;100408.91;;;3.74;84.61
51926;BME280;37952;51.938;15.480;2023-11-18T06:41:23;100401.67;;;3.78;84.57
51926;BME280;37952;51.938;15.480;2023-11-18T06:44:27;100398.72;;;3.85;84.46
51926;BME280;37952;51.938;15.480;2023-11-18T06:47:28;100404.05;;;3.89;84.49
51926;BME280;37952;51.938;15.480;2023-11-18T06:50:33;100406.91;;;3.86;84.44
51926;BME280;37952;51.938;15.480;2023-11-18T06:53:36;100406.49;;;3.81;84.54
51926;BME280;37952;51.938;15.480;2023-11-18T06:56:39;100408.86;;;3.77;84.73
51926;BME280;37952;51.938;15.480;2023-11-18T06:59:43;100411.73;;;3.73;84.72
51926;BME280;37952;51.938;15.480;2023-11-18T07:02:45;100411.89;;;3.74;84.89
51926;BME280;37952;51.938;15.480;2023-11-18T07:05:48;100417.91;;;3.77;84.93
51926;BME280;37952;51.938;15.480;2023-11-18T07:08:51;100425.35;;;3.79;84.92
51926;BME280;37952;51.938;15.480;2023-11-18T07:11:52;100427.69;;;3.85;84.89
51926;BME280;37952;51.938;15.480;2023-11-18T07:14:54;100438.61;;;3.88;84.93
51926;BME280;37952;51.938;15.480;2023-11-18T07:17:55;100437.19;;;3.89;84.82
51926;BME280;37952;51.938;15.480;2023-11-18T07:21:02;100439.73;;;3.93;84.80
51926;BME280;37952;51.938;15.480;2023-11-18T07:24:06;100441.98;;;3.93;84.83
51926;BME280;37952;51.938;15.480;2023-11-18T07:27:08;100444.42;;;4.01;84.76
51926;BME280;37952;51.938;15.480;2023-11-18T07:30:12;100443.96;;;4.06;84.85
51926;BME280;37952;51.938;15.480;2023-11-18T07:33:16;100454.42;;;4.06;84.74
51926;BME280;37952;51.938;15.480;2023-11-18T07:36:18;100457.37;;;4.08;84.66
51926;BME280;37952;51.938;15.480;2023-11-18T07:39:22;100458.52;;;4.02;84.71
51926;BME280;37952;51.938;15.480;2023-11-18T07:42:32;100460.52;;;4.07;84.73
51926;BME280;37952;51.938;15.480;2023-11-18T07:45:37;100469.56;;;4.16;84.73
51926;BME280;37952;51.938;15.480;2023-11-18T07:48:39;100474.84;;;4.22;84.68
51926;BME280;37952;51.938;15.480;2023-11-18T07:51:42;100478.94;;;4.26;84.71
51926;BME280;37952;51.938;15.480;2023-11-18T07:54:43;100486.71;;;4.29;84.60
51926;BME280;37952;51.938;15.480;2023-11-18T07:57:45;100490.06;;;4.27;84.58
51926;BME280;37952;51.938;15.480;2023-11-18T08:00:46;100488.14;;;4.28;84.43
51926;BME280;37952;51.938;15.480;2023-11-18T08:03:49;100490.36;;;4.30;84.49
51926;BME280;37952;51.938;15.480;2023-11-18T08:06:54;100497.30;;;4.33;84.51
51926;BME280;37952;51.938;15.480;2023-11-18T08:09:56;100501.13;;;4.33;84.42
51926;BME280;37952;51.938;15.480;2023-11-18T08:12:59;100500.77;;;4.33;84.45
51926;BME280;37952;51.938;15.480;2023-11-18T08:16:00;100506.16;;;4.34;84.50
51926;BME280;37952;51.938;15.480;2023-11-18T08:19:02;100507.11;;;4.38;84.55
51926;BME280;37952;51.938;15.480;2023-11-18T08:22:04;100503.09;;;4.38;84.59
51926;BME280;37952;51.938;15.480;2023-11-18T08:25:07;100503.75;;;4.40;84.49
51926;BME280;37952;51.938;15.480;2023-11-18T08:28:09;100507.03;;;4.42;84.47
51926;BME280;37952;51.938;15.480;2023-11-18T08:31:13;100506.77;;;4.45;84.41
51926;BME280;37952;51.938;15.480;2023-11-18T08:34:17;100503.21;;;4.49;84.32
51926;BME280;37952;51.938;15.480;2023-11-18T08:37:20;100503.30;;;4.52;84.29
51926;BME280;37952;51.938;15.480;2023-11-18T08:40:22;100510.11;;;4.52;84.26
51926;BME280;37952;51.938;15.480;2023-11-18T08:43:24;100519.40;;;4.50;84.26
51926;BME280;37952;51.938;15.480;2023-11-18T08:46:26;100518.36;;;4.49;84.25
51926;BME280;37952;51.938;15.480;2023-11-18T08:49:28;100516.23;;;4.51;84.18
51926;BME280;37952;51.938;15.480;2023-11-18T08:52:35;100523.53;;;4.60;84.12
51926;BME280;37952;51.938;15.480;2023-11-18T08:55:38;100523.64;;;4.56;84.00
51926;BME280;37952;51.938;15.480;2023-11-18T08:58:45;100533.36;;;4.58;83.90
51926;BME280;37952;51.938;15.480;2023-11-18T09:01:47;100544.69;;;4.59;83.87
51926;BME280;37952;51.938;15.480;2023-11-18T09:04:50;100539.49;;;4.57;83.85
51926;BME280;37952;51.938;15.480;2023-11-18T09:07:53;100543.63;;;4.60;83.70
51926;BME280;37952;51.938;15.480;2023-11-18T09:10:59;100550.16;;;4.56;83.74
51926;BME280;37952;51.938;15.480;2023-11-18T09:14:01;100553.35;;;4.54;83.61
51926;BME280;37952;51.938;15.480;2023-11-18T09:17:05;100557.77;;;4.61;83.81
51926;BME280;37952;51.938;15.480;2023-11-18T09:20:08;100555.89;;;4.66;83.78
51926;BME280;37952;51.938;15.480;2023-11-18T09:23:12;100555.94;;;4.78;83.69
51926;BME280;37952;51.938;15.480;2023-11-18T09:26:17;100560.00;;;4.85;83.53
51926;BME280;37952;51.938;15.480;2023-11-18T09:29:19;100560.59;;;4.89;83.45
51926;BME280;37952;51.938;15.480;2023-11-18T09:32:25;100565.94;;;4.91;83.31
51926;BME280;37952;51.938;15.480;2023-11-18T09:35:27;100569.92;;;4.86;83.12
51926;BME280;37952;51.938;15.480;2023-11-18T09:38:30;100570.70;;;4.83;82.97
51926;BME280;37952;51.938;15.480;2023-11-18T09:41:32;100561.64;;;4.82;82.99
51926;BME280;37952;51.938;15.480;2023-11-18T09:44:36;100575.29;;;4.80;82.85
51926;BME280;37952;51.938;15.480;2023-11-18T09:47:43;100575.17;;;4.78;82.67
51926;BME280;37952;51.938;15.480;2023-11-18T09:50:50;100578.58;;;4.66;82.65
51926;BME280;37952;51.938;15.480;2023-11-18T09:53:53;100576.21;;;4.63;82.71
51926;BME280;37952;51.938;15.480;2023-11-18T09:57:03;100580.35;;;4.66;82.56
51926;BME280;37952;51.938;15.480;2023-11-18T10:00:15;100583.52;;;4.64;82.51
51926;BME280;37952;51.938;15.480;2023-11-18T10:03:33;100582.20;;;4.69;82.61
51926;BME280;37952;51.938;15.480;2023-11-18T10:06:43;100582.64;;;4.65;82.50
51926;BME280;37952;51.938;15.480;2023-11-18T10:09:46;100582.84;;;4.63;82.46
51926;BME280;37952;51.938;15.480;2023-11-18T10:12:51;100575.54;;;4.62;82.55
51926;BME280;37952;51.938;15.480;2023-11-18T10:15:59;100577.58;;;4.56;82.50
51926;BME280;37952;51.938;15.480;2023-11-18T10:19:02;100581.58;;;4.58;82.49
51926;BME280;37952;51.938;15.480;2023-11-18T10:22:24;100584.22;;;4.72;82.54
51926;BME280;37952;51.938;15.480;2023-11-18T10:25:27;100586.55;;;4.85;82.58
51926;BME280;37952;51.938;15.480;2023-11-18T10:28:33;100590.80;;;4.90;82.32
51926;BME280;37952;51.938;15.480;2023-11-18T10:31:35;100584.73;;;4.87;82.18
51926;BME280;37952;51.938;15.480;2023-11-18T10:34:38;100597.17;;;4.78;82.09
51926;BME280;37952;51.938;15.480;2023-11-18T10:37:41;100601.61;;;4.67;81.97
51926;BME280;37952;51.938;15.480;2023-11-18T10:40:44;100594.07;;;4.61;81.99
51926;BME280;37952;51.938;15.480;2023-11-18T10:43:46;100593.73;;;4.52;81.88
51926;BME280;37952;51.938;15.480;2023-11-18T10:46:53;100589.13;;;4.55;82.03
51926;BME280;37952;51.938;15.480;2023-11-18T10:50:00;100590.90;;;4.62;82.23
51926;BME280;37952;51.938;15.480;2023-11-18T10:53:02;100596.35;;;4.68;82.12
51926;BME280;37952;51.938;15.480;2023-11-18T10:56:17;100593.05;;;4.67;82.02
51926;BME280;37952;51.938;15.480;2023-11-18T10:59:20;100587.36;;;4.64;81.96
51926;BME280;37952;51.938;15.480;2023-11-18T11:02:23;100590.34;;;4.71;82.00
51926;BME280;37952;51.938;15.480;2023-11-18T11:05:29;100588.29;;;4.69;81.90
51926;BME280;37952;51.938;15.480;2023-11-18T11:08:36;100581.77;;;4.80;81.83
51926;BME280;37952;51.938;15.480;2023-11-18T11:11:49;100582.50;;;5.00;81.90
51926;BME280;37952;51.938;15.480;2023-11-18T11:15:02;100581.12;;;5.21;81.90
51926;BME280;37952;51.938;15.480;2023-11-18T11:18:11;100584.52;;;5.18;80.99
51926;BME280;37952;51.938;15.480;2023-11-18T11:21:20;100579.75;;;5.20;81.04
51926;BME280;37952;51.938;15.480;2023-11-18T11:28:19;100593.36;;;5.14;80.83
51926;BME280;37952;51.938;15.480;2023-11-18T11:31:26;100593.75;;;5.05;80.47
51926;BME280;37952;51.938;15.480;2023-11-18T11:34:32;100595.56;;;5.09;80.64
51926;BME280;37952;51.938;15.480;2023-11-18T11:37:37;100595.08;;;5.15;80.66
51926;BME280;37952;51.938;15.480;2023-11-18T11:40:41;100601.76;;;5.14;80.54
51926;BME280;37952;51.938;15.480;2023-11-18T11:43:43;100595.95;;;5.08;80.36
51926;BME280;37952;51.938;15.480;2023-11-18T11:46:48;100599.55;;;4.88;80.13
51926;BME280;37952;51.938;15.480;2023-11-18T11:49:59;100593.65;;;4.87;80.22
51926;BME280;37952;51.938;15.480;2023-11-18T11:53:09;100589.99;;;4.94;80.33
51926;BME280;37952;51.938;15.480;2023-11-18T11:56:16;100595.00;;;5.04;80.31
51926;BME280;37952;51.938;15.480;2023-11-18T12:02:50;100582.79;;;5.10;80.27
51926;BME280;37952;51.938;15.480;2023-11-18T12:05:56;100578.52;;;5.13;80.37
51926;BME280;37952;51.938;15.480;2023-11-18T12:08:57;100574.20;;;5.04;80.32
51926;BME280;37952;51.938;15.480;2023-11-18T12:11:59;100588.50;;;4.98;80.50
51926;BME280;37952;51.938;15.480;2023-11-18T12:15:04;100597.08;;;4.90;80.56
51926;BME280;37952;51.938;15.480;2023-11-18T12:18:25;100597.77;;;4.75;80.59
51926;BME280;37952;51.938;15.480;2023-11-18T12:22:05;100599.40;;;4.65;80.79
51926;BME280;37952;51.938;15.480;2023-11-18T12:28:16;100599.61;;;4.70;81.17
51926;BME280;37952;51.938;15.480;2023-11-18T12:31:39;100599.47;;;4.69;81.26
51926;BME280;37952;51.938;15.480;2023-11-18T12:34:53;100597.55;;;4.69;81.38
51926;BME280;37952;51.938;15.480;2023-11-18T12:41:33;100592.23;;;4.73;81.49
51926;BME280;37952;51.938;15.480;2023-11-18T12:45:21;100592.35;;;4.75;81.55
51926;BME280;37952;51.938;15.480;2023-11-18T12:48:30;100583.20;;;4.71;81.51
51926;BME280;37952;51.938;15.480;2023-11-18T12:51:35;100577.51;;;4.67;81.48
51926;BME280;37952;51.938;15.480;2023-11-18T12:54:38;100574.11;;;4.70;81.69
51926;BME280;37952;51.938;15.480;2023-11-18T12:57:48;100568.59;;;4.68;81.66
51926;BME280;37952;51.938;15.480;2023-11-18T13:00:49;100569.73;;;4.63;81.59
51926;BME280;37952;51.938;15.480;2023-11-18T13:03:51;100564.85;;;4.55;81.82
51926;BME280;37952;51.938;15.480;2023-11-18T13:06:55;100561.20;;;4.55;81.73
51926;BME280;37952;51.938;15.480;2023-11-18T13:09:56;100558.77;;;4.54;81.84
51926;BME280;37952;51.938;15.480;2023-11-18T13:12:58;100564.33;;;4.48;81.91
51926;BME280;37952;51.938;15.480;2023-11-18T13:16:01;100568.30;;;4.49;82.01
51926;BME280;37952;51.938;15.480;2023-11-18T13:19:03;100567.58;;;4.59;82.04
51926;BME280;37952;51.938;15.480;2023-11-18T13:22:11;100568.26;;;4.75;82.07
51926;BME280;37952;51.938;15.480;2023-11-18T13:25:13;100573.03;;;4.95;81.98
51926;BME280;37952;51.938;15.480;2023-11-18T13:28:15;100572.43;;;5.12;81.95
51926;BME280;37952;51.938;15.480;2023-11-18T13:31:17;100572.14;;;5.24;81.83
51926;BME280;37952;51.938;15.480;2023-11-18T13:34:19;100573.50;;;5.32;81.67
51926;BME280;37952;51.938;15.480;2023-11-18T13:37:22;100575.39;;;5.40;81.72
51926;BME280;37952;51.938;15.480;2023-11-18T13:40:24;100569.77;;;5.55;81.58
51926;BME280;37952;51.938;15.480;2023-11-18T13:43:25;100564.64;;;5.70;81.67
51926;BME280;37952;51.938;15.480;2023-11-18T13:46:27;100560.05;;;5.78;81.32
51926;BME280;37952;51.938;15.480;2023-11-18T13:49:29;100562.90;;;5.70;80.92
51926;BME280;37952;51.938;15.480;2023-11-18T13:52:31;100564.77;;;5.59;80.63
51926;BME280;37952;51.938;15.480;2023-11-18T13:55:32;100557.10;;;5.51;80.58
51926;BME280;37952;51.938;15.480;2023-11-18T13:58:35;100561.48;;;5.51;80.67
51926;BME280;37952;51.938;15.480;2023-11-18T14:01:39;100564.27;;;5.51;80.82
51926;BME280;37952;51.938;15.480;2023-11-18T14:04:41;100565.39;;;5.48;80.72
51926;BME280;37952;51.938;15.480;2023-11-18T14:07:47;100566.09;;;5.42;80.81
51926;BME280;37952;51.938;15.480;2023-11-18T14:10:50;100563.45;;;5.36;80.82
51926;BME280;37952;51.938;15.480;2023-11-18T14:14:03;100569.67;;;5.31;80.82
51926;BME280;37952;51.938;15.480;2023-11-18T14:17:05;100575.66;;;5.30;80.83
51926;BME280;37952;51.938;15.480;2023-11-18T14:20:11;100574.89;;;5.33;80.95
51926;BME280;37952;51.938;15.480;2023-11-18T14:23:14;100579.59;;;5.34;80.95
51926;BME280;37952;51.938;15.480;2023-11-18T14:26:16;100584.50;;;5.34;80.89
51926;BME280;37952;51.938;15.480;2023-11-18T14:29:17;100579.75;;;5.34;80.89
51926;BME280;37952;51.938;15.480;2023-11-18T14:32:20;100580.98;;;5.34;80.80
51926;BME280;37952;51.938;15.480;2023-11-18T14:35:22;100588.48;;;5.35;80.74
51926;BME280;37952;51.938;15.480;2023-11-18T14:38:24;100598.16;;;5.32;80.61
51926;BME280;37952;51.938;15.480;2023-11-18T14:41:26;100598.33;;;5.25;80.56
51926;BME280;37952;51.938;15.480;2023-11-18T14:44:30;100595.45;;;5.21;80.57
51926;BME280;37952;51.938;15.480;2023-11-18T14:47:32;100600.39;;;5.12;80.43
51926;BME280;37952;51.938;15.480;2023-11-18T14:50:33;100601.20;;;5.01;80.34
51926;BME280;37952;51.938;15.480;2023-11-18T14:53:37;100593.66;;;4.94;80.40
51926;BME280;37952;51.938;15.480;2023-11-18T14:56:39;100587.63;;;4.90;80.40
51926;BME280;37952;51.938;15.480;2023-11-18T14:59:40;100584.23;;;4.87;80.41
51926;BME280;37952;51.938;15.480;2023-11-18T15:02:43;100582.69;;;4.85;80.36
51926;BME280;37952;51.938;15.480;2023-11-18T15:05:44;100581.02;;;4.82;80.38
51926;BME280;37952;51.938;15.480;2023-11-18T15:08:50;100578.63;;;4.79;80.44
51926;BME280;37952;51.938;15.480;2023-11-18T15:11:54;100581.63;;;4.78;80.48
51926;BME280;37952;51.938;15.480;2023-11-18T15:15:06;100579.21;;;4.77;80.39
51926;BME280;37952;51.938;15.480;2023-11-18T15:18:08;100570.27;;;4.78;80.51
51926;BME280;37952;51.938;15.480;2023-11-18T15:21:11;100565.95;;;4.76;80.60
51926;BME280;37952;51.938;15.480;2023-11-18T15:24:18;100564.25;;;4.74;80.49
51926;BME280;37952;51.938;15.480;2023-11-18T15:27:35;100565.91;;;4.70;80.43
51926;BME280;37952;51.938;15.480;2023-11-18T15:30:43;100563.11;;;4.71;80.50
51926;BME280;37952;51.938;15.480;2023-11-18T15:33:48;100560.33;;;4.70;80.50
51926;BME280;37952;51.938;15.480;2023-11-18T15:36:49;100550.05;;;4.69;80.48
51926;BME280;37952;51.938;15.480;2023-11-18T15:39:52;100546.29;;;4.65;80.41
51926;BME280;37952;51.938;15.480;2023-11-18T15:42:58;100548.77;;;4.64;80.51
51926;BME280;37952;51.938;15.480;2023-11-18T15:46:02;100545.14;;;4.63;80.60
51926;BME280;37952;51.938;15.480;2023-11-18T15:49:08;100541.68;;;4.61;80.57
51926;BME280;37952;51.938;15.480;2023-11-18T15:52:10;100536.53;;;4.57;80.52
51926;BME280;37952;51.938;15.480;2023-11-18T15:55:14;100540.94;;;4.55;80.62
51926;BME280;37952;51.938;15.480;2023-11-18T15:58:16;100542.41;;;4.60;80.72
51926;BME280;37952;51.938;15.480;2023-11-18T16:01:20;100533.48;;;4.61;80.64
51926;BME280;37952;51.938;15.480;2023-11-18T16:04:21;100535.42;;;4.60;80.68
51926;BME280;37952;51.938;15.480;2023-11-18T16:07:23;100531.91;;;4.60;80.69
51926;BME280;37952;51.938;15.480;2023-11-18T16:10:25;100529.64;;;4.61;80.67
51926;BME280;37952;51.938;15.480;2023-11-18T16:13:28;100533.70;;;4.59;80.77
51926;BME280;37952;51.938;15.480;2023-11-18T16:16:29;100534.86;;;4.53;80.59